sensor_id;sensor_type;location;lat;lon;timestamp;P1;durP1;ratioP1;P2;durP2;ratioP2
4980;SDS011;2507;50.392;7.482;2023-02-03T00:01:36;3.03;;;2.77;;
4980;SDS011;2507;50.392;7.482;2023-02-03T00:04:01;2.13;;;2.03;;
4980;SDS011;2507;50.392;7.482;2023-02-03T00:06:27;3.30;;;2.57;;
4980;SDS011;2507;50.392;7.482;2023-02-03T00:08:53;2.60;;;2.40;;
4980;SDS011;2507;50.392;7.482;2023-02-03T00:11:20;2.30;;;2.20;;
4980;SDS011;2507;50.392;7.482;2023-02-03T00:13:46;2.27;;;2.17;;
4980;SDS011;2507;50.392;7.482;2023-02-03T00:16:12;2.63;;;2.40;;
4980;SDS011;2507;50.392;7.482;2023-02-03T00:18:37;4.33;;;2.60;;
4980;SDS011;2507;50.392;7.482;2023-02-03T00:21:03;2.60;;;2.50;;
4980;SDS011;2507;50.392;7.482;2023-02-03T00:23:28;4.17;;;3.07;;
4980;SDS011;2507;50.392;7.482;2023-02-03T00:25:56;2.50;;;2.40;;
4980;SDS011;2507;50.392;7.482;2023-02-03T00:28:22;7.83;;;2.97;;
4980;SDS011;2507;50.392;7.482;2023-02-03T00:30:47;2.60;;;2.40;;
4980;SDS011;2507;50.392;7.482;2023-02-03T00:33:13;3.07;;;2.87;;
4980;SDS011;2507;50.392;7.482;2023-02-03T00:35:38;2.90;;;2.70;;
4980;SDS011;2507;50.392;7.482;2023-02-03T00:38:04;2.50;;;2.40;;
4980;SDS011;2507;50.392;7.482;2023-02-03T00:40:29;3.20;;;2.60;;
4980;SDS011;2507;50.392;7.482;2023-02-03T00:42:55;2.70;;;2.30;;
4980;SDS011;2507;50.392;7.482;2023-02-03T00:45:20;3.17;;;2.47;;
4980;SDS011;2507;50.392;7.482;2023-02-03T00:47:46;2.40;;;2.30;;
4980;SDS011;2507;50.392;7.482;2023-02-03T00:50:11;2.27;;;2.10;;
4980;SDS011;2507;50.392;7.482;2023-02-03T00:52:36;2.30;;;2.20;;
4980;SDS011;2507;50.392;7.482;2023-02-03T00:55:02;2.53;;;2.43;;
4980;SDS011;2507;50.392;7.482;2023-02-03T00:57:28;2.63;;;2.53;;
4980;SDS011;2507;50.392;7.482;2023-02-03T00:59:54;1.90;;;1.80;;
4980;SDS011;2507;50.392;7.482;2023-02-03T01:02:20;2.20;;;2.10;;
4980;SDS011;2507;50.392;7.482;2023-02-03T01:04:45;2.43;;;2.23;;
4980;SDS011;2507;50.392;7.482;2023-02-03T01:07:11;4.97;;;1.97;;
4980;SDS011;2507;50.392;7.482;2023-02-03T01:09:36;2.27;;;2.10;;
4980;SDS011;2507;50.392;7.482;2023-02-03T01:12:02;2.20;;;2.10;;
4980;SDS011;2507;50.392;7.482;2023-02-03T01:14:29;2.37;;;1.80;;
4980;SDS011;2507;50.392;7.482;2023-02-03T01:16:54;2.93;;;1.90;;
4980;SDS011;2507;50.392;7.482;2023-02-03T01:19:20;3.37;;;2.30;;
4980;SDS011;2507;50.392;7.482;2023-02-03T01:21:45;2.30;;;2.10;;
4980;SDS011;2507;50.392;7.482;2023-02-03T01:24:10;3.90;;;2.30;;
4980;SDS011;2507;50.392;7.482;2023-02-03T01:26:36;2.07;;;1.90;;
4980;SDS011;2507;50.392;7.482;2023-02-03T01:29:01;1.60;;;1.50;;
4980;SDS011;2507;50.392;7.482;2023-02-03T01:31:28;2.50;;;2.37;;
4980;SDS011;2507;50.392;7.482;2023-02-03T01:33:55;3.70;;;2.57;;
4980;SDS011;2507;50.392;7.482;2023-02-03T01:36:22;3.90;;;2.30;;
4980;SDS011;2507;50.392;7.482;2023-02-03T01:38:48;2.10;;;2.00;;
4980;SDS011;2507;50.392;7.482;2023-02-03T01:41:18;2.30;;;1.70;;
4980;SDS011;2507;50.392;7.482;2023-02-03T01:43:46;2.30;;;1.77;;
4980;SDS011;2507;50.392;7.482;2023-02-03T01:46:23;2.27;;;2.07;;
4980;SDS011;2507;50.392;7.482;2023-02-03T01:49:09;3.37;;;1.93;;
4980;SDS011;2507;50.392;7.482;2023-02-03T01:51:38;2.07;;;1.97;;
4980;SDS011;2507;50.392;7.482;2023-02-03T01:54:06;1.90;;;1.80;;
4980;SDS011;2507;50.392;7.482;2023-02-03T01:56:37;2.80;;;2.53;;
4980;SDS011;2507;50.392;7.482;2023-02-03T01:59:06;3.27;;;2.13;;
4980;SDS011;2507;50.392;7.482;2023-02-03T02:01:32;2.10;;;1.73;;
4980;SDS011;2507;50.392;7.482;2023-02-03T02:03:59;4.20;;;2.00;;
4980;SDS011;2507;50.392;7.482;2023-02-03T02:06:26;2.00;;;1.90;;
4980;SDS011;2507;50.392;7.482;2023-02-03T02:08:52;4.80;;;2.10;;
4980;SDS011;2507;50.392;7.482;2023-02-03T02:11:18;3.17;;;1.57;;
4980;SDS011;2507;50.392;7.482;2023-02-03T02:13:45;2.27;;;2.17;;
4980;SDS011;2507;50.392;7.482;2023-02-03T02:18:52;3.87;;;1.93;;
4980;SDS011;2507;50.392;7.482;2023-02-03T02:24:29;2.37;;;1.87;;
4980;SDS011;2507;50.392;7.482;2023-02-03T02:27:15;2.67;;;1.90;;
4980;SDS011;2507;50.392;7.482;2023-02-03T02:29:58;3.27;;;1.73;;
4980;SDS011;2507;50.392;7.482;2023-02-03T02:32:38;1.80;;;1.70;;
4980;SDS011;2507;50.392;7.482;2023-02-03T02:35:29;2.80;;;2.00;;
4980;SDS011;2507;50.392;7.482;2023-02-03T02:38:29;4.40;;;1.83;;
4980;SDS011;2507;50.392;7.482;2023-02-03T02:46:12;1.57;;;1.47;;
4980;SDS011;2507;50.392;7.482;2023-02-03T02:51:16;1.43;;;1.10;;
4980;SDS011;2507;50.392;7.482;2023-02-03T02:53:45;5.40;;;1.50;;
4980;SDS011;2507;50.392;7.482;2023-02-03T02:56:16;1.70;;;1.40;;
4980;SDS011;2507;50.392;7.482;2023-02-03T02:58:43;1.20;;;1.10;;
4980;SDS011;2507;50.392;7.482;2023-02-03T03:01:12;2.27;;;1.40;;
4980;SDS011;2507;50.392;7.482;2023-02-03T03:03:38;2.30;;;1.30;;
4980;SDS011;2507;50.392;7.482;2023-02-03T03:06:08;2.90;;;1.47;;
4980;SDS011;2507;50.392;7.482;2023-02-03T03:08:40;1.10;;;1.10;;
4980;SDS011;2507;50.392;7.482;2023-02-03T03:11:10;1.20;;;1.10;;
4980;SDS011;2507;50.392;7.482;2023-02-03T03:13:38;1.20;;;1.10;;
4980;SDS011;2507;50.392;7.482;2023-02-03T03:16:08;2.30;;;1.20;;
4980;SDS011;2507;50.392;7.482;2023-02-03T03:18:38;2.37;;;1.93;;
4980;SDS011;2507;50.392;7.482;2023-02-03T03:21:08;4.20;;;1.57;;
4980;SDS011;2507;50.392;7.482;2023-02-03T03:23:39;3.80;;;1.30;;
4980;SDS011;2507;50.392;7.482;2023-02-03T03:26:13;1.80;;;1.23;;
4980;SDS011;2507;50.392;7.482;2023-02-03T03:28:47;1.53;;;1.43;;
4980;SDS011;2507;50.392;7.482;2023-02-03T03:31:16;3.70;;;1.77;;
4980;SDS011;2507;50.392;7.482;2023-02-03T03:33:43;1.87;;;1.40;;
4980;SDS011;2507;50.392;7.482;2023-02-03T03:36:23;1.53;;;1.43;;
4980;SDS011;2507;50.392;7.482;2023-02-03T03:38:56;3.60;;;1.90;;
4980;SDS011;2507;50.392;7.482;2023-02-03T03:44:10;1.07;;;1.07;;
4980;SDS011;2507;50.392;7.482;2023-02-03T03:46:40;2.00;;;1.70;;
4980;SDS011;2507;50.392;7.482;2023-02-03T03:49:10;1.80;;;1.70;;
4980;SDS011;2507;50.392;7.482;2023-02-03T03:51:50;1.60;;;1.30;;
4980;SDS011;2507;50.392;7.482;2023-02-03T03:54:21;2.60;;;1.80;;
4980;SDS011;2507;50.392;7.482;2023-02-03T03:56:54;1.53;;;1.43;;
4980;SDS011;2507;50.392;7.482;2023-02-03T03:59:25;3.93;;;1.80;;
4980;SDS011;2507;50.392;7.482;2023-02-03T04:01:54;3.93;;;1.60;;
4980;SDS011;2507;50.392;7.482;2023-02-03T04:04:20;3.80;;;1.40;;
4980;SDS011;2507;50.392;7.482;2023-02-03T04:06:48;1.33;;;1.20;;
4980;SDS011;2507;50.392;7.482;2023-02-03T04:09:13;1.63;;;1.50;;
4980;SDS011;2507;50.392;7.482;2023-02-03T04:11:38;1.60;;;1.50;;
4980;SDS011;2507;50.392;7.482;2023-02-03T04:14:22;2.50;;;1.40;;
4980;SDS011;2507;50.392;7.482;2023-02-03T04:16:48;2.10;;;0.90;;
4980;SDS011;2507;50.392;7.482;2023-02-03T04:19:13;2.93;;;1.30;;
4980;SDS011;2507;50.392;7.482;2023-02-03T04:21:38;4.20;;;1.40;;
4980;SDS011;2507;50.392;7.482;2023-02-03T04:24:03;4.13;;;1.93;;
4980;SDS011;2507;50.392;7.482;2023-02-03T04:26:29;2.30;;;0.97;;
4980;SDS011;2507;50.392;7.482;2023-02-03T04:28:54;1.03;;;1.00;;
4980;SDS011;2507;50.392;7.482;2023-02-03T04:31:19;1.93;;;1.13;;
4980;SDS011;2507;50.392;7.482;2023-02-03T04:33:45;5.13;;;1.00;;
4980;SDS011;2507;50.392;7.482;2023-02-03T04:36:10;1.53;;;1.00;;
4980;SDS011;2507;50.392;7.482;2023-02-03T04:38:35;1.70;;;1.10;;
4980;SDS011;2507;50.392;7.482;2023-02-03T04:41:00;1.27;;;1.00;;
4980;SDS011;2507;50.392;7.482;2023-02-03T04:43:26;3.00;;;1.00;;
4980;SDS011;2507;50.392;7.482;2023-02-03T04:45:51;2.60;;;1.23;;
4980;SDS011;2507;50.392;7.482;2023-02-03T04:48:16;3.23;;;1.27;;
4980;SDS011;2507;50.392;7.482;2023-02-03T04:50:42;4.67;;;1.20;;
4980;SDS011;2507;50.392;7.482;2023-02-03T04:53:07;4.27;;;1.30;;
4980;SDS011;2507;50.392;7.482;2023-02-03T04:55:32;2.00;;;1.13;;
4980;SDS011;2507;50.392;7.482;2023-02-03T04:57:58;1.33;;;1.23;;
4980;SDS011;2507;50.392;7.482;2023-02-03T05:00:24;2.20;;;1.53;;
4980;SDS011;2507;50.392;7.482;2023-02-03T05:02:50;2.13;;;1.40;;
4980;SDS011;2507;50.392;7.482;2023-02-03T05:05:16;2.40;;;1.23;;
4980;SDS011;2507;50.392;7.482;2023-02-03T05:07:41;2.40;;;1.20;;
4980;SDS011;2507;50.392;7.482;2023-02-03T05:10:07;3.13;;;1.33;;
4980;SDS011;2507;50.392;7.482;2023-02-03T05:12:32;2.43;;;1.37;;
4980;SDS011;2507;50.392;7.482;2023-02-03T05:14:57;1.97;;;1.47;;
4980;SDS011;2507;50.392;7.482;2023-02-03T05:17:23;2.30;;;1.40;;
4980;SDS011;2507;50.392;7.482;2023-02-03T05:19:48;1.93;;;1.10;;
4980;SDS011;2507;50.392;7.482;2023-02-03T05:22:13;4.87;;;1.47;;
4980;SDS011;2507;50.392;7.482;2023-02-03T05:24:39;2.47;;;1.13;;
4980;SDS011;2507;50.392;7.482;2023-02-03T05:27:04;4.00;;;1.27;;
4980;SDS011;2507;50.392;7.482;2023-02-03T05:29:29;1.80;;;1.33;;
4980;SDS011;2507;50.392;7.482;2023-02-03T05:31:54;1.17;;;1.07;;
4980;SDS011;2507;50.392;7.482;2023-02-03T05:34:20;3.33;;;1.30;;
4980;SDS011;2507;50.392;7.482;2023-02-03T05:36:45;1.43;;;1.03;;
4980;SDS011;2507;50.392;7.482;2023-02-03T05:39:10;3.77;;;1.30;;
4980;SDS011;2507;50.392;7.482;2023-02-03T05:41:36;1.03;;;0.90;;
4980;SDS011;2507;50.392;7.482;2023-02-03T05:44:16;0.93;;;0.93;;
4980;SDS011;2507;50.392;7.482;2023-02-03T05:46:41;1.00;;;1.00;;
4980;SDS011;2507;50.392;7.482;2023-02-03T05:49:06;2.60;;;0.97;;
4980;SDS011;2507;50.392;7.482;2023-02-03T05:51:32;2.97;;;1.60;;
4980;SDS011;2507;50.392;7.482;2023-02-03T05:53:57;2.53;;;0.87;;
4980;SDS011;2507;50.392;7.482;2023-02-03T05:56:22;3.40;;;1.53;;
4980;SDS011;2507;50.392;7.482;2023-02-03T05:58:47;2.40;;;1.53;;
4980;SDS011;2507;50.392;7.482;2023-02-03T06:01:15;3.80;;;1.20;;
4980;SDS011;2507;50.392;7.482;2023-02-03T06:03:41;3.27;;;1.50;;
4980;SDS011;2507;50.392;7.482;2023-02-03T06:06:06;1.77;;;0.97;;
4980;SDS011;2507;50.392;7.482;2023-02-03T06:08:31;1.97;;;1.50;;
4980;SDS011;2507;50.392;7.482;2023-02-03T06:10:57;1.60;;;1.00;;
4980;SDS011;2507;50.392;7.482;2023-02-03T06:13:24;2.00;;;1.07;;
4980;SDS011;2507;50.392;7.482;2023-02-03T06:15:49;3.03;;;1.30;;
4980;SDS011;2507;50.392;7.482;2023-02-03T06:18:14;2.50;;;1.40;;
4980;SDS011;2507;50.392;7.482;2023-02-03T06:20:39;1.43;;;1.10;;
4980;SDS011;2507;50.392;7.482;2023-02-03T06:23:05;1.57;;;1.47;;
4980;SDS011;2507;50.392;7.482;2023-02-03T06:25:30;3.50;;;1.03;;
4980;SDS011;2507;50.392;7.482;2023-02-03T06:27:57;2.00;;;1.20;;
4980;SDS011;2507;50.392;7.482;2023-02-03T06:30:23;1.37;;;1.27;;
4980;SDS011;2507;50.392;7.482;2023-02-03T06:32:48;1.80;;;1.17;;
4980;SDS011;2507;50.392;7.482;2023-02-03T06:35:14;3.53;;;1.10;;
4980;SDS011;2507;50.392;7.482;2023-02-03T06:37:39;1.20;;;1.10;;
4980;SDS011;2507;50.392;7.482;2023-02-03T06:40:05;3.63;;;1.27;;
4980;SDS011;2507;50.392;7.482;2023-02-03T06:42:31;1.17;;;0.90;;
4980;SDS011;2507;50.392;7.482;2023-02-03T06:44:56;1.67;;;1.30;;
4980;SDS011;2507;50.392;7.482;2023-02-03T06:47:21;1.17;;;1.00;;
4980;SDS011;2507;50.392;7.482;2023-02-03T06:49:47;0.83;;;0.83;;
4980;SDS011;2507;50.392;7.482;2023-02-03T06:52:12;1.97;;;1.17;;
4980;SDS011;2507;50.392;7.482;2023-02-03T06:54:39;2.20;;;1.20;;
4980;SDS011;2507;50.392;7.482;2023-02-03T06:57:05;2.80;;;1.27;;
4980;SDS011;2507;50.392;7.482;2023-02-03T06:59:30;2.47;;;0.93;;
4980;SDS011;2507;50.392;7.482;2023-02-03T07:01:56;1.87;;;1.10;;
4980;SDS011;2507;50.392;7.482;2023-02-03T07:04:21;2.13;;;1.00;;
4980;SDS011;2507;50.392;7.482;2023-02-03T07:06:46;2.00;;;0.90;;
4980;SDS011;2507;50.392;7.482;2023-02-03T07:09:11;2.20;;;1.03;;
4980;SDS011;2507;50.392;7.482;2023-02-03T07:11:37;1.47;;;1.00;;
4980;SDS011;2507;50.392;7.482;2023-02-03T07:14:02;2.03;;;1.00;;
4980;SDS011;2507;50.392;7.482;2023-02-03T07:16:28;3.10;;;1.10;;
4980;SDS011;2507;50.392;7.482;2023-02-03T07:18:53;1.00;;;0.83;;
4980;SDS011;2507;50.392;7.482;2023-02-03T07:21:19;2.53;;;1.37;;
4980;SDS011;2507;50.392;7.482;2023-02-03T07:23:47;2.63;;;1.20;;
4980;SDS011;2507;50.392;7.482;2023-02-03T07:26:14;1.80;;;1.07;;
4980;SDS011;2507;50.392;7.482;2023-02-03T07:28:40;1.10;;;1.10;;
4980;SDS011;2507;50.392;7.482;2023-02-03T07:31:05;2.07;;;1.10;;
4980;SDS011;2507;50.392;7.482;2023-02-03T07:33:34;1.47;;;1.20;;
4980;SDS011;2507;50.392;7.482;2023-02-03T07:35:59;1.00;;;0.90;;
4980;SDS011;2507;50.392;7.482;2023-02-03T07:38:25;2.67;;;1.53;;
4980;SDS011;2507;50.392;7.482;2023-02-03T07:40:51;3.40;;;1.27;;
4980;SDS011;2507;50.392;7.482;2023-02-03T07:43:17;2.00;;;1.17;;
4980;SDS011;2507;50.392;7.482;2023-02-03T07:45:43;1.30;;;1.20;;
4980;SDS011;2507;50.392;7.482;2023-02-03T07:48:08;2.50;;;1.00;;
4980;SDS011;2507;50.392;7.482;2023-02-03T07:50:35;0.93;;;0.80;;
4980;SDS011;2507;50.392;7.482;2023-02-03T07:53:00;1.57;;;0.97;;
4980;SDS011;2507;50.392;7.482;2023-02-03T07:55:26;1.20;;;1.07;;
4980;SDS011;2507;50.392;7.482;2023-02-03T07:57:52;1.13;;;0.70;;
4980;SDS011;2507;50.392;7.482;2023-02-03T08:00:18;3.40;;;1.03;;
4980;SDS011;2507;50.392;7.482;2023-02-03T08:02:44;1.70;;;1.03;;
4980;SDS011;2507;50.392;7.482;2023-02-03T08:05:09;2.67;;;0.87;;
4980;SDS011;2507;50.392;7.482;2023-02-03T08:07:35;2.80;;;0.90;;
4980;SDS011;2507;50.392;7.482;2023-02-03T08:10:01;2.70;;;0.70;;
4980;SDS011;2507;50.392;7.482;2023-02-03T08:12:26;1.13;;;1.03;;
4980;SDS011;2507;50.392;7.482;2023-02-03T08:14:51;0.80;;;0.80;;
4980;SDS011;2507;50.392;7.482;2023-02-03T08:17:17;1.80;;;1.00;;
4980;SDS011;2507;50.392;7.482;2023-02-03T08:19:42;1.20;;;0.83;;
4980;SDS011;2507;50.392;7.482;2023-02-03T08:22:07;1.70;;;0.67;;
4980;SDS011;2507;50.392;7.482;2023-02-03T08:24:33;2.20;;;1.20;;
4980;SDS011;2507;50.392;7.482;2023-02-03T08:26:59;3.03;;;1.10;;
4980;SDS011;2507;50.392;7.482;2023-02-03T08:29:25;1.47;;;0.83;;
4980;SDS011;2507;50.392;7.482;2023-02-03T08:31:50;1.37;;;0.97;;
4980;SDS011;2507;50.392;7.482;2023-02-03T08:34:16;2.60;;;0.93;;
4980;SDS011;2507;50.392;7.482;2023-02-03T08:36:41;1.80;;;1.20;;
4980;SDS011;2507;50.392;7.482;2023-02-03T08:39:08;3.23;;;1.23;;
4980;SDS011;2507;50.392;7.482;2023-02-03T08:41:33;0.90;;;0.90;;
4980;SDS011;2507;50.392;7.482;2023-02-03T08:43:59;1.70;;;0.87;;
4980;SDS011;2507;50.392;7.482;2023-02-03T08:46:25;1.17;;;1.03;;
4980;SDS011;2507;50.392;7.482;2023-02-03T08:48:50;3.13;;;1.30;;
4980;SDS011;2507;50.392;7.482;2023-02-03T08:51:17;0.90;;;0.90;;
4980;SDS011;2507;50.392;7.482;2023-02-03T08:53:43;1.37;;;0.90;;
4980;SDS011;2507;50.392;7.482;2023-02-03T08:56:09;2.40;;;0.90;;
4980;SDS011;2507;50.392;7.482;2023-02-03T08:58:36;1.30;;;0.97;;
4980;SDS011;2507;50.392;7.482;2023-02-03T09:01:05;1.47;;;1.00;;
4980;SDS011;2507;50.392;7.482;2023-02-03T09:03:32;1.13;;;0.90;;
4980;SDS011;2507;50.392;7.482;2023-02-03T09:05:58;1.50;;;1.00;;
4980;SDS011;2507;50.392;7.482;2023-02-03T09:08:24;1.50;;;1.40;;
4980;SDS011;2507;50.392;7.482;2023-02-03T09:10:49;2.83;;;1.30;;
4980;SDS011;2507;50.392;7.482;2023-02-03T09:13:14;1.37;;;1.27;;
4980;SDS011;2507;50.392;7.482;2023-02-03T09:15:39;1.70;;;0.90;;
4980;SDS011;2507;50.392;7.482;2023-02-03T09:18:05;1.13;;;0.87;;
4980;SDS011;2507;50.392;7.482;2023-02-03T09:20:30;4.10;;;1.23;;
4980;SDS011;2507;50.392;7.482;2023-02-03T09:22:56;1.63;;;0.90;;
4980;SDS011;2507;50.392;7.482;2023-02-03T09:25:23;6.00;;;1.17;;
4980;SDS011;2507;50.392;7.482;2023-02-03T09:27:48;2.40;;;1.10;;
4980;SDS011;2507;50.392;7.482;2023-02-03T09:30:14;2.57;;;0.93;;
4980;SDS011;2507;50.392;7.482;2023-02-03T09:32:39;2.33;;;0.97;;
4980;SDS011;2507;50.392;7.482;2023-02-03T09:35:04;1.37;;;0.90;;
4980;SDS011;2507;50.392;7.482;2023-02-03T09:37:30;1.53;;;0.93;;
4980;SDS011;2507;50.392;7.482;2023-02-03T09:39:55;3.70;;;1.60;;
4980;SDS011;2507;50.392;7.482;2023-02-03T09:45:13;1.30;;;1.20;;
4980;SDS011;2507;50.392;7.482;2023-02-03T09:47:45;2.50;;;2.03;;
4980;SDS011;2507;50.392;7.482;2023-02-03T09:50:12;2.30;;;1.20;;
4980;SDS011;2507;50.392;7.482;2023-02-03T09:52:43;2.33;;;1.60;;
4980;SDS011;2507;50.392;7.482;2023-02-03T10:00:30;1.40;;;1.03;;
4980;SDS011;2507;50.392;7.482;2023-02-03T10:08:42;1.70;;;1.40;;
4980;SDS011;2507;50.392;7.482;2023-02-03T10:16:38;4.50;;;1.17;;
4980;SDS011;2507;50.392;7.482;2023-02-03T10:19:18;3.23;;;1.43;;
4980;SDS011;2507;50.392;7.482;2023-02-03T10:21:50;3.50;;;1.10;;
4980;SDS011;2507;50.392;7.482;2023-02-03T10:24:21;1.43;;;1.33;;
4980;SDS011;2507;50.392;7.482;2023-02-03T10:26:51;1.80;;;1.50;;
4980;SDS011;2507;50.392;7.482;2023-02-03T10:29:33;1.93;;;1.20;;
4980;SDS011;2507;50.392;7.482;2023-02-03T10:32:10;8.07;;;1.40;;
4980;SDS011;2507;50.392;7.482;2023-02-03T10:34:36;3.37;;;1.03;;
4980;SDS011;2507;50.392;7.482;2023-02-03T10:37:03;4.23;;;1.53;;
4980;SDS011;2507;50.392;7.482;2023-02-03T10:39:42;1.27;;;1.10;;
4980;SDS011;2507;50.392;7.482;2023-02-03T10:42:10;1.73;;;1.20;;
4980;SDS011;2507;50.392;7.482;2023-02-03T10:44:38;2.53;;;1.50;;
4980;SDS011;2507;50.392;7.482;2023-02-03T10:49:59;2.70;;;1.63;;
4980;SDS011;2507;50.392;7.482;2023-02-03T10:52:29;2.20;;;0.97;;
4980;SDS011;2507;50.392;7.482;2023-02-03T10:54:58;2.63;;;1.00;;
4980;SDS011;2507;50.392;7.482;2023-02-03T10:57:33;3.23;;;1.37;;
4980;SDS011;2507;50.392;7.482;2023-02-03T11:00:04;2.10;;;0.90;;
4980;SDS011;2507;50.392;7.482;2023-02-03T11:02:33;2.53;;;1.33;;
4980;SDS011;2507;50.392;7.482;2023-02-03T11:05:08;2.93;;;0.90;;
4980;SDS011;2507;50.392;7.482;2023-02-03T11:07:44;3.50;;;1.63;;
4980;SDS011;2507;50.392;7.482;2023-02-03T11:10:26;1.57;;;1.47;;
4980;SDS011;2507;50.392;7.482;2023-02-03T11:12:51;1.40;;;1.10;;
4980;SDS011;2507;50.392;7.482;2023-02-03T11:15:34;2.30;;;0.90;;
4980;SDS011;2507;50.392;7.482;2023-02-03T11:18:00;2.27;;;0.83;;
4980;SDS011;2507;50.392;7.482;2023-02-03T11:20:25;2.63;;;1.17;;
4980;SDS011;2507;50.392;7.482;2023-02-03T11:22:53;1.80;;;0.83;;
4980;SDS011;2507;50.392;7.482;2023-02-03T11:25:26;2.93;;;0.90;;
4980;SDS011;2507;50.392;7.482;2023-02-03T11:27:56;8.07;;;1.07;;
4980;SDS011;2507;50.392;7.482;2023-02-03T11:30:28;3.13;;;1.10;;
4980;SDS011;2507;50.392;7.482;2023-02-03T11:32:54;1.00;;;1.00;;
4980;SDS011;2507;50.392;7.482;2023-02-03T11:37:47;4.23;;;2.27;;
4980;SDS011;2507;50.392;7.482;2023-02-03T11:42:40;1.73;;;0.80;;
4980;SDS011;2507;50.392;7.482;2023-02-03T11:47:45;1.53;;;1.27;;
4980;SDS011;2507;50.392;7.482;2023-02-03T11:50:16;3.40;;;1.30;;
4980;SDS011;2507;50.392;7.482;2023-02-03T11:55:49;1.67;;;1.10;;
4980;SDS011;2507;50.392;7.482;2023-02-03T12:04:23;1.37;;;0.87;;
4980;SDS011;2507;50.392;7.482;2023-02-03T12:09:55;1.27;;;0.97;;
4980;SDS011;2507;50.392;7.482;2023-02-03T12:23:36;0.83;;;0.67;;
4980;SDS011;2507;50.392;7.482;2023-02-03T12:26:20;0.70;;;0.50;;
4980;SDS011;2507;50.392;7.482;2023-02-03T12:29:01;2.00;;;0.90;;
4980;SDS011;2507;50.392;7.482;2023-02-03T12:37:07;0.80;;;0.80;;
4980;SDS011;2507;50.392;7.482;2023-02-03T12:39:52;0.60;;;0.50;;
4980;SDS011;2507;50.392;7.482;2023-02-03T12:42:25;1.40;;;0.60;;
4980;SDS011;2507;50.392;7.482;2023-02-03T12:45:03;0.93;;;0.70;;
4980;SDS011;2507;50.392;7.482;2023-02-03T12:47:42;0.70;;;0.70;;
4980;SDS011;2507;50.392;7.482;2023-02-03T12:50:18;0.80;;;0.50;;
4980;SDS011;2507;50.392;7.482;2023-02-03T12:55:37;0.60;;;0.60;;
4980;SDS011;2507;50.392;7.482;2023-02-03T13:03:26;1.80;;;0.60;;
4980;SDS011;2507;50.392;7.482;2023-02-03T13:06:05;0.63;;;0.63;;
4980;SDS011;2507;50.392;7.482;2023-02-03T13:08:37;0.63;;;0.63;;
4980;SDS011;2507;50.392;7.482;2023-02-03T13:11:12;0.80;;;0.80;;
4980;SDS011;2507;50.392;7.482;2023-02-03T13:13:48;1.07;;;0.93;;
4980;SDS011;2507;50.392;7.482;2023-02-03T13:16:20;2.87;;;0.80;;
4980;SDS011;2507;50.392;7.482;2023-02-03T13:18:50;0.90;;;0.90;;
4980;SDS011;2507;50.392;7.482;2023-02-03T13:21:20;1.13;;;1.00;;
4980;SDS011;2507;50.392;7.482;2023-02-03T13:23:47;1.70;;;1.20;;
4980;SDS011;2507;50.392;7.482;2023-02-03T13:29:21;2.83;;;0.90;;
4980;SDS011;2507;50.392;7.482;2023-02-03T13:32:02;1.30;;;1.30;;
4980;SDS011;2507;50.392;7.482;2023-02-03T13:37:49;1.37;;;1.37;;
4980;SDS011;2507;50.392;7.482;2023-02-03T13:43:35;1.43;;;1.43;;
4980;SDS011;2507;50.392;7.482;2023-02-03T13:46:04;1.47;;;1.37;;
4980;SDS011;2507;50.392;7.482;2023-02-03T13:48:32;1.80;;;1.80;;
4980;SDS011;2507;50.392;7.482;2023-02-03T13:51:15;3.63;;;1.93;;
4980;SDS011;2507;50.392;7.482;2023-02-03T13:53:50;1.43;;;1.43;;
4980;SDS011;2507;50.392;7.482;2023-02-03T13:56:24;2.00;;;1.70;;
4980;SDS011;2507;50.392;7.482;2023-02-03T13:58:59;1.60;;;1.60;;
4980;SDS011;2507;50.392;7.482;2023-02-03T14:01:32;2.20;;;2.00;;
4980;SDS011;2507;50.392;7.482;2023-02-03T14:09:26;1.77;;;1.67;;
4980;SDS011;2507;50.392;7.482;2023-02-03T14:19:59;1.93;;;1.83;;
4980;SDS011;2507;50.392;7.482;2023-02-03T14:22:25;1.73;;;1.63;;
4980;SDS011;2507;50.392;7.482;2023-02-03T14:24:51;2.10;;;2.00;;
4980;SDS011;2507;50.392;7.482;2023-02-03T14:27:20;2.30;;;2.20;;
4980;SDS011;2507;50.392;7.482;2023-02-03T14:30:08;2.50;;;2.30;;
4980;SDS011;2507;50.392;7.482;2023-02-03T14:32:53;3.50;;;3.20;;
4980;SDS011;2507;50.392;7.482;2023-02-03T14:35:21;2.80;;;2.60;;
4980;SDS011;2507;50.392;7.482;2023-02-03T14:37:50;2.10;;;2.00;;
4980;SDS011;2507;50.392;7.482;2023-02-03T14:40:22;4.23;;;2.80;;
4980;SDS011;2507;50.392;7.482;2023-02-03T14:46:41;2.73;;;2.63;;
4980;SDS011;2507;50.392;7.482;2023-02-03T14:54:26;2.80;;;2.67;;
4980;SDS011;2507;50.392;7.482;2023-02-03T14:57:13;3.53;;;3.23;;
4980;SDS011;2507;50.392;7.482;2023-02-03T15:00:05;3.70;;;3.13;;
4980;SDS011;2507;50.392;7.482;2023-02-03T15:05:39;3.10;;;2.77;;
4980;SDS011;2507;50.392;7.482;2023-02-03T15:10:56;3.67;;;2.80;;
4980;SDS011;2507;50.392;7.482;2023-02-03T15:15:55;4.63;;;2.33;;
4980;SDS011;2507;50.392;7.482;2023-02-03T15:18:29;2.23;;;2.20;;
4980;SDS011;2507;50.392;7.482;2023-02-03T15:20:56;3.00;;;2.80;;
4980;SDS011;2507;50.392;7.482;2023-02-03T15:23:26;2.43;;;2.33;;
4980;SDS011;2507;50.392;7.482;2023-02-03T15:26:00;3.20;;;3.00;;
4980;SDS011;2507;50.392;7.482;2023-02-03T15:28:34;1.90;;;1.80;;
4980;SDS011;2507;50.392;7.482;2023-02-03T15:31:04;3.10;;;2.90;;
4980;SDS011;2507;50.392;7.482;2023-02-03T15:33:33;2.30;;;2.20;;
4980;SDS011;2507;50.392;7.482;2023-02-03T15:36:02;2.33;;;2.10;;
4980;SDS011;2507;50.392;7.482;2023-02-03T15:38:38;2.53;;;2.37;;
4980;SDS011;2507;50.392;7.482;2023-02-03T15:41:11;2.20;;;2.10;;
4980;SDS011;2507;50.392;7.482;2023-02-03T15:43:46;2.40;;;2.30;;
4980;SDS011;2507;50.392;7.482;2023-02-03T15:46:19;2.47;;;2.37;;
4980;SDS011;2507;50.392;7.482;2023-02-03T15:51:39;3.23;;;2.43;;
4980;SDS011;2507;50.392;7.482;2023-02-03T15:56:45;2.00;;;1.90;;
4980;SDS011;2507;50.392;7.482;2023-02-03T16:01:59;7.43;;;5.30;;
4980;SDS011;2507;50.392;7.482;2023-02-03T16:04:30;7.93;;;6.37;;
4980;SDS011;2507;50.392;7.482;2023-02-03T16:06:55;2.90;;;2.67;;
4980;SDS011;2507;50.392;7.482;2023-02-03T16:09:26;4.70;;;2.73;;
4980;SDS011;2507;50.392;7.482;2023-02-03T16:14:53;3.60;;;3.40;;
4980;SDS011;2507;50.392;7.482;2023-02-03T16:17:21;3.57;;;3.37;;
4980;SDS011;2507;50.392;7.482;2023-02-03T16:19:49;3.67;;;2.97;;
4980;SDS011;2507;50.392;7.482;2023-02-03T16:22:25;3.40;;;3.20;;
4980;SDS011;2507;50.392;7.482;2023-02-03T16:24:52;3.30;;;3.00;;
4980;SDS011;2507;50.392;7.482;2023-02-03T16:27:19;3.57;;;3.20;;
4980;SDS011;2507;50.392;7.482;2023-02-03T16:29:45;5.40;;;3.33;;
4980;SDS011;2507;50.392;7.482;2023-02-03T16:32:29;5.77;;;3.57;;
4980;SDS011;2507;50.392;7.482;2023-02-03T16:35:13;3.50;;;3.30;;
4980;SDS011;2507;50.392;7.482;2023-02-03T16:38:03;4.70;;;3.60;;
4980;SDS011;2507;50.392;7.482;2023-02-03T16:40:56;7.10;;;3.37;;
4980;SDS011;2507;50.392;7.482;2023-02-03T16:43:40;7.83;;;3.70;;
4980;SDS011;2507;50.392;7.482;2023-02-03T16:46:24;7.73;;;3.90;;
4980;SDS011;2507;50.392;7.482;2023-02-03T16:49:08;3.30;;;3.00;;
4980;SDS011;2507;50.392;7.482;2023-02-03T16:51:52;6.13;;;3.30;;
4980;SDS011;2507;50.392;7.482;2023-02-03T16:54:17;4.70;;;3.43;;
4980;SDS011;2507;50.392;7.482;2023-02-03T16:56:43;4.40;;;3.43;;
4980;SDS011;2507;50.392;7.482;2023-02-03T16:59:08;4.60;;;3.27;;
4980;SDS011;2507;50.392;7.482;2023-02-03T17:01:34;4.83;;;3.43;;
4980;SDS011;2507;50.392;7.482;2023-02-03T17:03:59;4.40;;;3.07;;
4980;SDS011;2507;50.392;7.482;2023-02-03T17:06:25;4.33;;;3.50;;
4980;SDS011;2507;50.392;7.482;2023-02-03T17:08:50;4.90;;;3.70;;
4980;SDS011;2507;50.392;7.482;2023-02-03T17:11:17;6.27;;;3.97;;
4980;SDS011;2507;50.392;7.482;2023-02-03T17:13:44;4.03;;;3.73;;
4980;SDS011;2507;50.392;7.482;2023-02-03T17:16:11;4.83;;;3.40;;
4980;SDS011;2507;50.392;7.482;2023-02-03T17:18:44;3.73;;;3.50;;
4980;SDS011;2507;50.392;7.482;2023-02-03T17:21:12;8.23;;;4.80;;
4980;SDS011;2507;50.392;7.482;2023-02-03T17:23:38;5.73;;;5.23;;
4980;SDS011;2507;50.392;7.482;2023-02-03T17:26:04;6.90;;;4.30;;
4980;SDS011;2507;50.392;7.482;2023-02-03T17:28:29;4.20;;;3.80;;
4980;SDS011;2507;50.392;7.482;2023-02-03T17:30:55;4.93;;;4.40;;
4980;SDS011;2507;50.392;7.482;2023-02-03T17:33:25;6.37;;;4.53;;
4980;SDS011;2507;50.392;7.482;2023-02-03T17:35:59;7.50;;;4.10;;
4980;SDS011;2507;50.392;7.482;2023-02-03T17:38:25;4.37;;;4.07;;
4980;SDS011;2507;50.392;7.482;2023-02-03T17:40:50;4.63;;;4.10;;